Time;durP1;ratioP1;P1;durP2;ratioP2;P2;SDS_P1;SDS_P2;PMS_P1;PMS_P2;Temp;Humidity;BMP_temperature;BMP_pressure;BME280_temperature;BME280_humidity;BME280_pressure;Samples;Min_cycle;Max_cycle;Signal;HPM_P1;HPM_P2
2023/04/23 00:00:51;;;;;;;6.90;6.20;;;14.00;99.90;;;;;;5079858;28;20196;-91
2023/04/23 00:03:18;;;;;;;7.20;6.50;;;14.00;99.90;;;;;;5079279;28;20172;-89
2023/04/23 00:05:44;;;;;;;7.23;6.57;;;14.00;99.90;;;;;;5081376;28;20188;-89
2023/04/23 00:08:10;;;;;;;7.13;6.53;;;14.10;99.90;;;;;;5098913;28;20193;-90
2023/04/23 00:10:36;;;;;;;11.27;6.80;;;14.10;99.90;;;;;;5106372;28;20203;-89
2023/04/23 00:13:03;;;;;;;7.53;6.83;;;14.00;99.90;;;;;;5107067;28;20244;-88
2023/04/23 00:15:29;;;;;;;7.43;6.80;;;14.00;99.90;;;;;;5084664;28;20184;-88
2023/04/23 00:17:55;;;;;;;7.70;7.10;;;13.90;99.90;;;;;;5082152;28;20178;-89
2023/04/23 00:20:21;;;;;;;9.13;8.30;;;13.90;99.90;;;;;;5083984;28;20205;-89
2023/04/23 00:22:47;;;;;;;9.00;8.10;;;13.70;99.90;;;;;;5081187;28;20207;-88
2023/04/23 00:25:13;;;;;;;9.33;8.63;;;13.60;99.90;;;;;;5078331;28;20186;-89
2023/04/23 00:27:38;;;;;;;9.07;8.30;;;13.60;99.90;;;;;;5078519;28;20274;-87
2023/04/23 00:30:05;;;;;;;10.63;9.63;;;13.50;99.90;;;;;;5078616;28;20200;-86
2023/04/23 00:32:31;;;;;;;10.57;9.67;;;13.60;99.90;;;;;;5078368;28;20209;-90
2023/04/23 00:34:57;;;;;;;10.17;9.37;;;13.50;99.90;;;;;;5079082;28;20251;-88
2023/04/23 00:37:22;;;;;;;9.70;8.97;;;13.60;99.90;;;;;;5077088;28;20179;-88
2023/04/23 00:39:48;;;;;;;10.03;9.20;;;13.60;99.90;;;;;;5085775;28;20200;-89
2023/04/23 00:42:16;;;;;;;11.57;10.37;;;13.50;99.90;;;;;;5096322;28;20220;-89
2023/04/23 00:44:42;;;;;;;10.90;9.87;;;13.50;99.90;;;;;;5094607;28;20354;-89
2023/04/23 00:47:09;;;;;;;10.90;9.90;;;13.50;99.90;;;;;;5097425;28;20194;-89
2023/04/23 00:49:35;;;;;;;11.80;10.80;;;13.50;99.90;;;;;;5096228;28;20218;-89
2023/04/23 00:52:02;;;;;;;11.47;10.53;;;13.40;99.90;;;;;;5096897;28;20616;-88
2023/04/23 00:54:28;;;;;;;12.70;11.50;;;13.40;99.90;;;;;;5095339;28;20191;-88
2023/04/23 00:56:58;;;;;;;11.63;10.63;;;13.40;99.90;;;;;;5083415;28;20196;-88
2023/04/23 00:59:25;;;;;;;11.93;10.73;;;13.40;99.90;;;;;;5078434;28;20173;-88
2023/04/23 01:01:52;;;;;;;12.23;11.03;;;13.40;99.90;;;;;;5078438;28;20224;-90
2023/04/23 01:04:19;;;;;;;12.23;11.23;;;13.40;99.90;;;;;;5079152;28;20291;-87
2023/04/23 01:06:46;;;;;;;12.67;11.47;;;13.30;99.90;;;;;;5078157;28;20191;-88
2023/04/23 01:09:12;;;;;;;12.40;11.40;;;13.20;99.90;;;;;;5078190;28;20206;-87
2023/04/23 01:11:41;;;;;;;13.17;11.70;;;13.20;99.90;;;;;;5078815;28;20225;-88
2023/04/23 01:14:08;;;;;;;10.73;9.83;;;13.20;99.90;;;;;;5096127;28;20674;-87
2023/04/23 01:16:35;;;;;;;11.80;10.70;;;13.20;99.90;;;;;;5079057;28;20176;-88
2023/04/23 01:19:01;;;;;;;11.13;10.13;;;13.20;99.90;;;;;;5085399;28;20178;-86
2023/04/23 01:21:28;;;;;;;10.90;9.63;;;13.20;99.90;;;;;;5099185;28;20565;-88
2023/04/23 01:23:54;;;;;;;10.57;9.67;;;13.30;99.90;;;;;;5099113;28;20190;-88
2023/04/23 01:26:21;;;;;;;10.30;9.43;;;13.10;99.90;;;;;;5100056;28;20217;-87
2023/04/23 01:28:47;;;;;;;10.27;9.27;;;13.20;99.90;;;;;;5099413;28;20183;-87
2023/04/23 01:31:13;;;;;;;10.70;9.70;;;13.10;99.90;;;;;;5081915;28;20219;-88
2023/04/23 01:33:40;;;;;;;9.73;8.73;;;13.10;99.90;;;;;;5078284;28;20800;-88
2023/04/23 01:36:07;;;;;;;9.03;8.23;;;13.00;99.90;;;;;;5078669;28;20205;-88
2023/04/23 01:38:34;;;;;;;8.63;7.87;;;13.00;99.90;;;;;;5097045;28;20191;-88
2023/04/23 01:41:00;;;;;;;8.70;7.97;;;13.10;99.90;;;;;;5096095;28;20282;-90
2023/04/23 01:43:27;;;;;;;8.23;7.53;;;13.00;99.90;;;;;;5096511;28;20233;-87
2023/04/23 01:45:52;;;;;;;8.73;7.83;;;13.00;99.90;;;;;;5095735;28;20171;-90
2023/04/23 01:48:18;;;;;;;8.23;7.37;;;13.00;99.90;;;;;;5096709;28;20186;-90
2023/04/23 01:50:44;;;;;;;7.43;6.67;;;13.00;99.90;;;;;;5097072;28;20199;-89
2023/04/23 01:53:10;;;;;;;7.20;6.50;;;13.10;99.90;;;;;;5098392;28;20342;-87
2023/04/23 01:55:40;;;;;;;7.57;6.87;;;13.10;99.90;;;;;;5099094;28;20191;-88
2023/04/23 01:58:05;;;;;;;7.70;6.83;;;13.00;99.90;;;;;;5110292;28;20178;-91
2023/04/23 02:00:31;;;;;;;7.63;6.93;;;13.00;99.90;;;;;;5105678;28;20195;-91
2023/04/23 02:02:57;;;;;;;7.47;6.57;;;13.00;99.90;;;;;;5097025;28;20197;-91
2023/04/23 02:05:24;;;;;;;7.50;6.90;;;13.10;99.90;;;;;;5093085;28;20224;-91
2023/04/23 02:07:51;;;;;;;8.17;6.40;;;13.00;99.90;;;;;;5087639;28;20183;-87
2023/04/23 02:10:17;;;;;;;7.00;6.30;;;13.00;99.90;;;;;;5093994;28;20233;-89
2023/04/23 02:12:44;;;;;;;7.07;6.37;;;12.90;99.90;;;;;;5099070;28;20200;-89
2023/04/23 02:15:11;;;;;;;6.60;6.10;;;13.00;99.90;;;;;;5098081;28;20187;-89
2023/04/23 02:17:38;;;;;;;6.47;5.87;;;13.00;99.90;;;;;;5098085;28;20187;-89
2023/04/23 02:20:06;;;;;;;7.00;6.30;;;13.00;99.90;;;;;;5098432;28;20206;-88
2023/04/23 02:22:31;;;;;;;6.47;5.80;;;13.00;99.90;;;;;;5098801;28;20179;-89
2023/04/23 02:24:58;;;;;;;6.47;5.83;;;13.00;99.90;;;;;;5096315;28;20358;-88
2023/04/23 02:27:24;;;;;;;7.57;5.77;;;13.10;99.90;;;;;;5098413;28;20203;-88
2023/04/23 02:29:50;;;;;;;6.67;5.87;;;13.00;99.90;;;;;;5098561;28;20195;-88
2023/04/23 02:32:16;;;;;;;7.83;5.90;;;13.10;99.90;;;;;;5098802;28;20203;-89
2023/04/23 02:34:42;;;;;;;6.40;5.80;;;13.20;99.90;;;;;;5096751;28;20275;-89
2023/04/23 02:37:08;;;;;;;5.60;5.10;;;13.20;99.90;;;;;;5094215;28;20279;-89
2023/04/23 02:39:33;;;;;;;5.40;4.93;;;13.20;99.90;;;;;;5095407;28;20637;-89
2023/04/23 02:41:59;;;;;;;6.93;5.47;;;13.10;99.90;;;;;;5097774;28;20188;-87
2023/04/23 02:44:25;;;;;;;8.23;5.97;;;13.20;99.90;;;;;;5100048;28;20176;-89
2023/04/23 02:46:51;;;;;;;5.97;5.40;;;13.20;99.90;;;;;;5100998;28;20250;-88
2023/04/23 02:49:19;;;;;;;9.93;5.77;;;13.10;99.90;;;;;;5101449;28;20766;-89
2023/04/23 02:51:45;;;;;;;6.50;5.80;;;13.00;99.90;;;;;;5099256;28;20208;-89
2023/04/23 02:54:11;;;;;;;6.20;5.20;;;13.00;99.90;;;;;;5081982;28;20735;-89
2023/04/23 02:56:37;;;;;;;6.00;5.50;;;13.10;99.90;;;;;;5082614;28;20195;-89
2023/04/23 02:59:03;;;;;;;5.77;5.27;;;13.20;99.90;;;;;;5083063;28;20229;-87
2023/04/23 03:01:28;;;;;;;5.47;5.07;;;13.20;99.90;;;;;;5083293;28;20200;-86
2023/04/23 03:03:54;;;;;;;5.97;5.47;;;13.30;99.90;;;;;;5100006;28;20468;-88
2023/04/23 03:06:20;;;;;;;6.00;5.47;;;13.30;99.90;;;;;;5102666;28;20186;-89
2023/04/23 03:08:46;;;;;;;6.77;6.17;;;13.30;99.90;;;;;;5101164;28;20184;-89
2023/04/23 03:11:11;;;;;;;6.70;6.07;;;13.10;99.90;;;;;;5100346;28;20310;-88
2023/04/23 03:13:37;;;;;;;6.70;6.00;;;13.10;99.90;;;;;;5101971;28;20186;-88
2023/04/23 03:16:03;;;;;;;7.83;6.50;;;13.10;99.90;;;;;;5098826;28;20180;-88
2023/04/23 03:18:29;;;;;;;7.60;6.90;;;13.00;99.90;;;;;;5100222;28;20251;-88
2023/04/23 03:20:55;;;;;;;6.90;6.30;;;12.80;99.90;;;;;;5098645;28;20206;-89
2023/04/23 03:23:20;;;;;;;6.80;6.30;;;12.80;99.90;;;;;;5100567;28;20269;-90
2023/04/23 03:25:46;;;;;;;8.30;7.07;;;12.80;99.90;;;;;;5100447;28;20203;-88
2023/04/23 03:28:12;;;;;;;7.23;6.63;;;12.80;99.90;;;;;;5101315;28;20639;-87
2023/04/23 03:30:37;;;;;;;6.20;5.70;;;12.70;99.90;;;;;;5099951;28;20236;-88
2023/04/23 03:33:03;;;;;;;6.77;6.17;;;12.70;99.90;;;;;;5097794;28;20220;-88
2023/04/23 03:35:29;;;;;;;6.90;6.30;;;12.70;99.90;;;;;;5076585;28;20281;-88
2023/04/23 03:37:55;;;;;;;6.53;5.93;;;12.80;99.90;;;;;;5078579;28;20181;-88
2023/04/23 03:40:21;;;;;;;6.80;6.10;;;12.70;99.90;;;;;;5078962;28;20198;-87
2023/04/23 03:42:46;;;;;;;6.93;5.90;;;12.70;99.90;;;;;;5079507;28;20242;-87
2023/04/23 03:45:13;;;;;;;7.20;6.60;;;12.70;99.90;;;;;;5079900;28;20178;-86
2023/04/23 03:47:39;;;;;;;9.77;6.30;;;12.60;99.90;;;;;;5079961;28;20183;-87
2023/04/23 03:50:06;;;;;;;7.07;6.37;;;12.50;99.90;;;;;;5082131;28;20198;-87
2023/04/23 03:52:32;;;;;;;6.50;5.90;;;12.50;99.90;;;;;;5099676;28;20377;-86
2023/04/23 03:54:57;;;;;;;7.27;6.57;;;12.50;99.90;;;;;;5097227;28;20177;-87
2023/04/23 03:57:23;;;;;;;6.87;6.27;;;12.40;99.90;;;;;;5097698;28;20186;-89
2023/04/23 03:59:49;;;;;;;6.33;5.83;;;12.40;99.90;;;;;;5099461;28;20193;-87
2023/04/23 04:02:15;;;;;;;6.37;5.77;;;12.40;99.90;;;;;;5098641;28;20525;-87
2023/04/23 04:04:42;;;;;;;6.40;5.90;;;12.40;99.90;;;;;;5097359;28;20316;-87
2023/04/23 04:07:10;;;;;;;6.87;5.83;;;12.40;99.90;;;;;;5095855;28;20174;-87
2023/04/23 04:09:36;;;;;;;5.67;5.10;;;12.30;99.90;;;;;;5080510;28;20182;-87
2023/04/23 04:12:03;;;;;;;4.70;4.40;;;12.40;99.90;;;;;;5096347;28;20210;-87
2023/04/23 04:14:29;;;;;;;4.97;4.57;;;12.40;99.90;;;;;;5099422;28;20192;-85
2023/04/23 04:16:55;;;;;;;5.57;5.07;;;12.40;99.90;;;;;;5099490;28;20235;-83
2023/04/23 04:19:22;;;;;;;5.50;4.93;;;12.50;99.90;;;;;;5100561;28;20174;-85
2023/04/23 04:21:47;;;;;;;6.53;6.03;;;12.50;99.90;;;;;;5102070;28;20274;-83
2023/04/23 04:24:13;;;;;;;5.93;5.43;;;12.60;99.90;;;;;;5095658;28;20706;-88
2023/04/23 04:26:39;;;;;;;5.87;5.47;;;12.50;99.90;;;;;;5077836;28;20174;-87
2023/04/23 04:29:04;;;;;;;7.27;6.57;;;12.60;99.90;;;;;;5095174;28;20190;-87
2023/04/23 04:31:31;;;;;;;7.07;6.50;;;12.60;99.90;;;;;;5093571;28;20260;-87
2023/04/23 04:33:57;;;;;;;6.33;5.83;;;12.50;99.90;;;;;;5092359;28;20719;-88
2023/04/23 04:36:26;;;;;;;8.20;7.40;;;12.50;99.90;;;;;;5087092;28;20781;-86
2023/04/23 04:38:54;;;;;;;7.53;6.93;;;12.60;99.90;;;;;;5093366;28;20257;-88
2023/04/23 04:41:21;;;;;;;7.90;7.30;;;12.60;99.90;;;;;;5094969;28;20210;-87
2023/04/23 04:43:47;;;;;;;8.53;7.60;;;12.60;99.90;;;;;;5096307;28;20178;-87
2023/04/23 04:46:13;;;;;;;8.23;7.57;;;12.60;99.90;;;;;;5095831;28;20200;-88
2023/04/23 04:48:38;;;;;;;9.80;7.93;;;12.50;99.90;;;;;;5096635;28;20237;-89
2023/04/23 04:51:04;;;;;;;9.47;8.67;;;12.40;99.90;;;;;;5096828;28;20293;-88
2023/04/23 04:53:30;;;;;;;8.87;8.17;;;12.50;99.90;;;;;;5096042;28;20190;-87
2023/04/23 04:55:55;;;;;;;8.80;8.00;;;12.50;99.90;;;;;;5096494;28;20191;-88
2023/04/23 04:58:21;;;;;;;8.90;8.10;;;12.40;99.90;;;;;;5094969;28;20206;-88
2023/04/23 05:00:50;;;;;;;9.43;8.63;;;12.50;99.90;;;;;;5097278;28;20290;-87
2023/04/23 05:03:20;;;;;;;8.57;7.93;;;12.50;99.90;;;;;;5096820;28;20198;-88
2023/04/23 05:05:47;;;;;;;8.53;7.83;;;12.60;99.90;;;;;;5095021;28;20518;-88
2023/04/23 05:08:15;;;;;;;9.00;8.10;;;12.60;99.90;;;;;;5096064;28;20185;-87
2023/04/23 05:10:42;;;;;;;8.30;7.50;;;12.70;99.90;;;;;;5096835;28;20213;-88
2023/04/23 05:13:07;;;;;;;8.93;8.13;;;12.70;99.90;;;;;;5093320;28;20199;-88
2023/04/23 05:15:33;;;;;;;8.23;7.47;;;12.80;99.90;;;;;;5095800;28;20182;-88
2023/04/23 05:17:59;;;;;;;8.10;7.30;;;12.70;99.90;;;;;;5097198;28;20175;-87
2023/04/23 05:20:26;;;;;;;8.23;7.57;;;12.60;99.90;;;;;;5104622;28;20207;-87
2023/04/23 05:22:51;;;;;;;8.00;7.27;;;12.60;99.90;;;;;;5097369;28;20204;-89
2023/04/23 05:25:17;;;;;;;7.90;7.23;;;12.60;99.90;;;;;;5091631;28;20263;-87
2023/04/23 05:27:42;;;;;;;7.37;6.70;;;12.50;99.90;;;;;;5074496;28;20188;-87
2023/04/23 05:30:09;;;;;;;7.77;6.80;;;12.50;99.90;;;;;;5098733;28;20984;-88
2023/04/23 05:32:35;;;;;;;7.17;6.57;;;12.50;99.90;;;;;;5107093;28;20233;-87
2023/04/23 05:35:02;;;;;;;7.00;6.40;;;12.60;99.90;;;;;;5099511;28;20219;-88
2023/04/23 05:37:28;;;;;;;6.93;6.43;;;12.70;99.90;;;;;;5097341;28;20176;-88
2023/04/23 05:39:54;;;;;;;6.47;5.93;;;12.70;99.90;;;;;;5093494;28;20236;-87
2023/04/23 05:42:20;;;;;;;6.60;6.10;;;12.90;99.90;;;;;;5088685;28;20327;-88
2023/04/23 05:44:46;;;;;;;6.70;6.20;;;12.90;99.90;;;;;;5085014;28;20583;-87
2023/04/23 05:47:13;;;;;;;5.93;5.37;;;12.90;99.90;;;;;;5087546;28;20186;-86
2023/04/23 05:49:39;;;;;;;5.87;5.37;;;13.00;99.90;;;;;;5098625;28;20202;-87
2023/04/23 05:52:05;;;;;;;6.57;5.47;;;13.10;99.90;;;;;;5092904;28;20209;-88
2023/04/23 05:54:30;;;;;;;6.50;6.00;;;13.00;99.90;;;;;;5078063;28;20195;-87
2023/04/23 05:56:56;;;;;;;5.60;5.10;;;12.90;99.90;;;;;;5077089;28;20211;-87
2023/04/23 05:59:23;;;;;;;6.00;5.50;;;12.70;99.90;;;;;;5076222;28;20211;-88
2023/04/23 06:01:49;;;;;;;6.00;5.50;;;12.70;99.90;;;;;;5077161;28;20269;-87
2023/04/23 06:04:17;;;;;;;5.13;4.70;;;12.60;99.90;;;;;;5077201;28;20254;-87
2023/04/23 06:06:43;;;;;;;5.23;4.80;;;12.60;99.90;;;;;;5076566;28;20714;-86
2023/04/23 06:09:09;;;;;;;5.57;5.00;;;12.70;99.90;;;;;;5079001;28;20194;-87
2023/04/23 06:11:37;;;;;;;5.10;4.60;;;12.70;99.90;;;;;;5076333;28;20232;-88
2023/04/23 06:14:03;;;;;;;6.20;5.60;;;12.70;99.90;;;;;;5076596;28;20210;-89
2023/04/23 06:16:29;;;;;;;5.60;5.03;;;12.70;99.90;;;;;;5076056;28;20187;-88
2023/04/23 06:18:55;;;;;;;5.37;4.90;;;12.90;99.90;;;;;;5096278;28;20202;-87
2023/04/23 06:21:24;;;;;;;5.07;4.67;;;13.00;99.90;;;;;;5100134;28;20199;-89
2023/04/23 06:23:50;;;;;;;5.40;4.90;;;13.10;99.90;;;;;;5100732;28;20263;-87
2023/04/23 06:26:16;;;;;;;5.87;5.30;;;13.10;99.90;;;;;;5098665;28;20203;-88
2023/04/23 06:28:43;;;;;;;5.20;4.70;;;13.10;99.90;;;;;;5099994;28;20843;-88
2023/04/23 06:31:09;;;;;;;5.50;4.80;;;13.00;99.90;;;;;;5100047;28;20197;-87
2023/04/23 06:33:36;;;;;;;4.93;4.53;;;13.10;99.90;;;;;;5099666;28;20188;-88
2023/04/23 06:36:02;;;;;;;4.63;4.23;;;13.20;99.90;;;;;;5098521;28;20238;-87
2023/04/23 06:38:28;;;;;;;4.37;4.07;;;13.30;99.90;;;;;;5082933;28;20181;-87
2023/04/23 06:40:54;;;;;;;3.87;3.57;;;13.40;99.90;;;;;;5082969;28;20626;-87
2023/04/23 06:43:20;;;;;;;4.03;3.63;;;13.40;99.90;;;;;;5082190;28;20181;-86
2023/04/23 06:45:45;;;;;;;4.10;3.80;;;13.50;99.90;;;;;;5099188;28;20180;-90
2023/04/23 06:48:11;;;;;;;4.03;3.67;;;13.40;99.90;;;;;;5092296;28;20211;-82
2023/04/23 06:50:37;;;;;;;3.80;3.50;;;13.40;99.90;;;;;;5103669;28;20208;-92
2023/04/23 06:53:03;;;;;;;4.00;3.67;;;13.50;99.90;;;;;;5109914;28;20269;-90
2023/04/23 06:55:29;;;;;;;3.70;3.40;;;13.70;99.90;;;;;;5101203;28;20206;-92
2023/04/23 06:57:54;;;;;;;3.93;3.63;;;13.70;99.90;;;;;;5100256;28;20219;-90
2023/04/23 07:00:21;;;;;;;3.40;3.10;;;13.90;99.90;;;;;;5108764;28;20185;-92
2023/04/23 07:02:47;;;;;;;3.20;2.97;;;14.00;99.90;;;;;;5101878;28;20179;-89
2023/04/23 07:05:14;;;;;;;3.50;2.90;;;14.00;99.90;;;;;;5116170;28;20214;-91
2023/04/23 07:07:41;;;;;;;3.23;2.93;;;14.10;99.90;;;;;;5101277;28;20197;-88
2023/04/23 07:10:08;;;;;;;3.10;2.90;;;14.20;99.90;;;;;;5091846;28;20193;-91
2023/04/23 07:12:35;;;;;;;3.67;2.60;;;14.20;99.90;;;;;;5094328;28;20216;-89
2023/04/23 07:15:01;;;;;;;2.40;2.20;;;14.10;99.90;;;;;;5112425;28;20184;-91
2023/04/23 07:17:27;;;;;;;2.90;2.50;;;14.30;99.90;;;;;;5121197;28;20202;-90
2023/04/23 07:19:52;;;;;;;2.60;2.50;;;14.30;99.90;;;;;;5119380;28;20209;-91
2023/04/23 07:22:18;;;;;;;2.90;2.70;;;14.40;99.90;;;;;;5116258;28;20195;-93
2023/04/23 07:24:44;;;;;;;3.10;2.73;;;14.40;99.90;;;;;;5122301;28;20167;-93
2023/04/23 07:27:10;;;;;;;2.80;2.60;;;14.40;99.90;;;;;;5121020;28;20200;-93
2023/04/23 07:29:35;;;;;;;2.60;2.40;;;14.40;99.00;;;;;;5092699;28;20244;-90
2023/04/23 07:32:01;;;;;;;4.10;2.70;;;14.30;97.80;;;;;;5112352;28;20212;-90
2023/04/23 07:34:26;;;;;;;2.60;2.33;;;14.30;99.30;;;;;;5112954;28;20176;-89
2023/04/23 07:36:52;;;;;;;2.63;2.43;;;14.40;99.20;;;;;;5094034;28;20566;-90
2023/04/23 07:39:18;;;;;;;3.33;2.40;;;14.40;99.20;;;;;;5102425;28;20179;-90
2023/04/23 07:41:43;;;;;;;3.20;2.50;;;14.80;97.40;;;;;;5107171;28;20625;-90
2023/04/23 07:44:09;;;;;;;2.43;2.20;;;14.60;96.60;;;;;;5103176;28;20838;-90
2023/04/23 07:46:35;;;;;;;3.43;2.80;;;14.60;94.70;;;;;;5103464;28;20282;-91
2023/04/23 07:49:00;;;;;;;2.47;2.30;;;14.90;94.40;;;;;;5102792;28;20185;-90
2023/04/23 07:51:27;;;;;;;2.67;2.47;;;14.90;95.60;;;;;;5090499;28;20536;-91
2023/04/23 07:53:53;;;;;;;2.47;2.37;;;14.90;95.10;;;;;;5090256;28;20183;-90
2023/04/23 07:56:23;;;;;;;3.50;2.50;;;15.10;94.50;;;;;;5093042;28;20571;-93
2023/04/23 07:58:49;;;;;;;2.70;2.50;;;15.30;94.70;;;;;;5097696;28;20165;-94
2023/04/23 08:01:15;;;;;;;2.53;2.33;;;15.30;91.70;;;;;;5099157;28;20255;-92
2023/04/23 08:03:41;;;;;;;2.70;2.50;;;15.20;89.90;;;;;;5099046;28;20166;-91
2023/04/23 08:06:09;;;;;;;3.37;2.60;;;15.30;89.70;;;;;;5099282;28;20179;-94
2023/04/23 08:08:34;;;;;;;2.63;2.43;;;15.30;93.30;;;;;;5105595;28;20171;-90
2023/04/23 08:11:00;;;;;;;2.80;2.60;;;15.40;92.30;;;;;;5108635;28;20221;-89
2023/04/23 08:13:26;;;;;;;2.97;2.78;;;15.60;90.10;;;;;;5103939;28;20436;-91
2023/04/23 08:15:52;;;;;;;3.03;2.80;;;15.50;86.10;;;;;;5100055;28;20197;-90
2023/04/23 08:18:17;;;;;;;3.07;2.87;;;15.50;83.90;;;;;;5118496;28;20179;-93
2023/04/23 08:20:43;;;;;;;2.70;2.50;;;15.50;81.90;;;;;;5102582;28;20223;-91
2023/04/23 08:23:09;;;;;;;2.90;2.70;;;15.60;86.30;;;;;;5102361;28;20238;-89
2023/04/23 08:25:35;;;;;;;3.17;2.90;;;15.80;85.30;;;;;;5100068;28;20175;-90
2023/04/23 08:28:01;;;;;;;3.13;2.93;;;16.00;82.60;;;;;;5099782;28;20190;-89
2023/04/23 08:30:27;;;;;;;3.60;2.73;;;16.00;82.30;;;;;;5099374;28;20198;-90
2023/04/23 08:32:52;;;;;;;3.03;2.83;;;15.90;81.90;;;;;;5099068;28;20767;-91
2023/04/23 08:35:19;;;;;;;3.30;3.10;;;15.90;80.90;;;;;;5097611;28;20175;-91
2023/04/23 08:37:45;;;;;;;3.23;2.70;;;15.90;83.30;;;;;;5099358;28;20191;-90
2023/04/23 08:40:12;;;;;;;3.17;2.97;;;16.00;81.50;;;;;;5099778;28;20220;-89
2023/04/23 08:42:43;;;;;;;3.10;2.80;;;16.40;79.60;;;;;;5099061;28;20213;-90
2023/04/23 08:45:09;;;;;;;3.67;3.37;;;16.20;79.10;;;;;;5098789;28;20169;-90
2023/04/23 08:47:39;;;;;;;2.83;2.63;;;16.30;75.40;;;;;;5097083;28;20188;-91
2023/04/23 08:50:06;;;;;;;3.43;3.13;;;16.50;77.10;;;;;;5080446;28;20222;-90
2023/04/23 08:52:36;;;;;;;3.30;3.00;;;16.90;77.10;;;;;;5077396;28;20299;-89
2023/04/23 08:55:06;;;;;;;3.40;3.10;;;17.20;75.40;;;;;;5082387;28;20214;-90
2023/04/23 08:57:32;;;;;;;3.50;3.20;;;17.50;72.80;;;;;;5100191;28;20167;-91
2023/04/23 08:59:59;;;;;;;3.20;3.00;;;17.60;71.30;;;;;;5099214;28;20202;-90
2023/04/23 09:02:25;;;;;;;3.37;3.10;;;17.60;69.40;;;;;;5097384;28;20413;-89
2023/04/23 09:04:53;;;;;;;3.67;3.38;;;17.70;71.60;;;;;;5090796;28;20190;-89
2023/04/23 09:07:19;;;;;;;3.73;2.93;;;17.70;71.20;;;;;;5098124;28;20190;-91
2023/04/23 09:09:45;;;;;;;3.13;2.93;;;17.60;69.70;;;;;;5097896;28;20252;-88
2023/04/23 09:12:11;;;;;;;3.20;2.90;;;17.40;71.00;;;;;;5096306;28;20231;-90
2023/04/23 09:14:36;;;;;;;3.60;3.30;;;17.70;69.30;;;;;;5090047;28;20256;-89
2023/04/23 09:17:02;;;;;;;3.40;3.10;;;17.70;67.30;;;;;;5093643;28;20249;-90
2023/04/23 09:19:29;;;;;;;3.10;2.90;;;17.80;68.60;;;;;;5096408;28;20204;-91
2023/04/23 09:21:56;;;;;;;3.10;2.90;;;17.80;68.90;;;;;;5089207;28;20229;-91
2023/04/23 09:24:23;;;;;;;3.20;3.00;;;17.70;70.00;;;;;;5092795;28;20182;-90
2023/04/23 09:26:50;;;;;;;3.10;2.90;;;18.10;68.10;;;;;;5103151;28;20188;-90
2023/04/23 09:29:18;;;;;;;3.92;3.03;;;18.30;66.00;;;;;;5084296;28;20705;-90
2023/04/23 09:31:50;;;;;;;3.65;3.35;;;18.70;61.90;;;;;;5082450;28;20218;-88
2023/04/23 09:34:20;;;;;;;3.80;3.58;;;18.80;62.70;;;;;;5079238;28;20162;-89
2023/04/23 09:36:49;;;;;;;3.80;3.50;;;18.70;63.10;;;;;;5078844;28;20171;-88
2023/04/23 09:39:17;;;;;;;4.28;3.20;;;18.90;61.40;;;;;;5078211;28;20179;-89
2023/04/23 09:41:44;;;;;;;7.00;3.35;;;18.80;59.50;;;;;;5080093;28;20286;-90
2023/04/23 09:44:12;;;;;;;3.60;3.30;;;18.90;57.90;;;;;;5091516;28;20238;-89
2023/04/23 09:46:42;;;;;;;20.55;18.70;;;19.00;56.40;;;;;;5100491;28;20178;-88
2023/04/23 09:49:09;;;;;;;10.30;9.43;;;19.10;59.00;;;;;;5099997;28;20201;-90
2023/04/23 09:51:47;;;;;;;4.03;3.72;;;19.40;58.50;;;;;;5098527;28;20210;-88
2023/04/23 09:54:15;;;;;;;6.10;3.42;;;19.60;57.70;;;;;;5077671;28;20175;-90
2023/04/23 09:56:41;;;;;;;3.67;3.38;;;19.40;56.60;;;;;;5077975;28;20212;-89
2023/04/23 09:59:28;;;;;;;5.25;3.35;;;19.30;54.50;;;;;;5082051;28;20155;-89
2023/04/23 10:01:54;;;;;;;3.20;3.00;;;19.00;57.70;;;;;;5084263;28;20222;-88
2023/04/23 10:04:22;;;;;;;3.40;3.10;;;19.20;57.70;;;;;;5097164;28;20190;-89
2023/04/23 10:06:59;;;;;;;4.15;3.85;;;19.60;57.20;;;;;;5099564;28;20244;-89
2023/04/23 10:09:26;;;;;;;3.53;3.22;;;20.00;55.60;;;;;;5093741;28;20170;-89
2023/04/23 10:11:57;;;;;;;3.97;3.28;;;20.10;55.50;;;;;;5107372;28;20264;-88
2023/04/23 10:14:24;;;;;;;3.75;3.45;;;20.30;52.70;;;;;;5098277;28;20201;-88
2023/04/23 10:16:58;;;;;;;3.60;3.40;;;19.90;54.40;;;;;;5097584;28;20182;-88
2023/04/23 10:19:24;;;;;;;3.47;3.17;;;19.30;55.90;;;;;;5090541;28;20190;-90
2023/04/23 10:21:56;;;;;;;3.55;3.25;;;19.20;57.60;;;;;;5085083;28;20210;-89
2023/04/23 10:24:27;;;;;;;3.17;2.88;;;19.50;59.40;;;;;;5093305;28;20183;-91
2023/04/23 10:26:56;;;;;;;3.60;3.30;;;19.80;56.20;;;;;;5089829;28;20179;-90
2023/04/23 10:29:27;;;;;;;4.68;3.10;;;20.00;55.00;;;;;;5085761;28;20186;-88
2023/04/23 10:31:55;;;;;;;3.10;2.90;;;19.90;56.70;;;;;;5076400;28;20203;-89
2023/04/23 10:34:23;;;;;;;3.92;2.95;;;20.00;55.00;;;;;;5077718;28;20176;-90
2023/04/23 10:36:50;;;;;;;3.00;2.80;;;20.20;53.30;;;;;;5090976;28;20185;-89
2023/04/23 10:39:17;;;;;;;3.40;3.20;;;20.30;52.10;;;;;;5098969;28;20175;-92
2023/04/23 10:41:43;;;;;;;3.15;2.88;;;20.50;52.00;;;;;;5101346;28;20733;-89
2023/04/23 10:44:15;;;;;;;3.10;2.90;;;20.00;54.80;;;;;;5088452;28;20187;-89
2023/04/23 10:46:53;;;;;;;3.17;2.97;;;20.10;53.00;;;;;;5099139;28;20163;-89
2023/04/23 10:49:21;;;;;;;5.25;3.55;;;20.20;50.60;;;;;;5097915;28;20727;-89
2023/04/23 10:51:47;;;;;;;2.60;2.50;;;20.40;52.40;;;;;;5096860;28;20241;-89
2023/04/23 10:54:15;;;;;;;3.20;3.00;;;20.50;51.00;;;;;;5098542;28;20182;-89
2023/04/23 10:56:41;;;;;;;3.15;2.95;;;20.80;52.10;;;;;;5100006;28;20184;-92
2023/04/23 10:59:18;;;;;;;3.28;2.97;;;20.70;52.50;;;;;;5094647;28;20549;-90
2023/04/23 11:01:47;;;;;;;2.88;2.67;;;20.10;52.80;;;;;;5089964;28;20223;-88
2023/04/23 11:04:23;;;;;;;3.22;2.97;;;20.00;54.50;;;;;;5097747;28;20179;-89
2023/04/23 11:06:49;;;;;;;2.90;2.72;;;20.30;53.20;;;;;;5100096;28;20305;-88
2023/04/23 11:09:52;;;;;;;3.00;2.80;;;20.50;51.40;;;;;;5089818;28;20305;-89
2023/04/23 11:12:24;;;;;;;2.88;2.70;;;21.10;48.90;;;;;;5080063;28;20315;-90
2023/04/23 11:14:50;;;;;;;2.95;2.75;;;21.50;48.20;;;;;;5082078;28;20185;-92
2023/04/23 11:17:20;;;;;;;3.10;2.90;;;21.30;48.30;;;;;;5083079;28;20175;-89
2023/04/23 11:20:12;;;;;;;2.90;2.70;;;21.00;50.30;;;;;;5099482;28;20177;-93
2023/04/23 11:22:41;;;;;;;3.88;3.58;;;21.20;49.20;;;;;;5100510;28;20179;-91
2023/04/23 11:25:11;;;;;;;2.92;2.72;;;22.00;46.20;;;;;;5101261;28;20217;-90
2023/04/23 11:27:44;;;;;;;2.95;2.75;;;22.50;43.70;;;;;;5099968;28;20182;-87
2023/04/23 11:30:12;;;;;;;3.13;2.90;;;23.00;43.70;;;;;;5101898;28;20195;-90
2023/04/23 11:32:39;;;;;;;3.40;3.20;;;23.40;42.50;;;;;;5099097;28;20191;-88
2023/04/23 11:35:06;;;;;;;2.92;2.72;;;23.40;44.10;;;;;;5102732;28;20181;-91
2023/04/23 11:37:32;;;;;;;3.72;2.97;;;23.50;39.10;;;;;;5084225;28;20741;-88
2023/04/23 11:40:07;;;;;;;3.30;3.10;;;23.70;39.90;;;;;;5081571;28;20192;-90
2023/04/23 11:42:41;;;;;;;2.90;2.80;;;24.30;37.60;;;;;;5081155;28;20199;-92
2023/04/23 11:45:24;;;;;;;2.85;2.75;;;22.70;40.50;;;;;;5094180;28;20174;-88
2023/04/23 11:47:57;;;;;;;3.10;2.90;;;22.50;40.80;;;;;;5102310;28;20174;-89
2023/04/23 11:50:25;;;;;;;4.40;3.17;;;22.90;41.10;;;;;;5101692;28;20206;-90
2023/04/23 11:52:51;;;;;;;2.67;2.58;;;23.00;38.90;;;;;;5101675;28;20218;-91
2023/04/23 11:55:18;;;;;;;2.70;2.60;;;22.60;41.10;;;;;;5100283;28;20183;-89
2023/04/23 11:57:46;;;;;;;2.75;2.55;;;22.10;43.40;;;;;;5100136;28;20198;-89
2023/04/23 12:00:23;;;;;;;2.90;2.70;;;21.70;45.00;;;;;;5093885;28;20195;-89
2023/04/23 12:02:55;;;;;;;3.00;2.80;;;21.90;41.80;;;;;;5086341;28;20171;-91
2023/04/23 12:05:26;;;;;;;2.97;2.78;;;22.00;42.20;;;;;;5106178;28;20226;-91
2023/04/23 12:07:51;;;;;;;2.65;2.42;;;22.40;43.90;;;;;;5103887;28;20199;-88
2023/04/23 12:10:19;;;;;;;2.80;2.60;;;22.80;42.20;;;;;;5106142;28;20195;-88
2023/04/23 12:12:52;;;;;;;3.03;2.83;;;22.60;41.10;;;;;;5107229;28;20734;-87
2023/04/23 12:15:18;;;;;;;2.95;2.75;;;23.00;42.50;;;;;;5098308;28;20655;-89
2023/04/23 12:17:49;;;;;;;3.08;2.83;;;23.20;39.20;;;;;;5101457;28;20183;-89
2023/04/23 12:20:20;;;;;;;2.83;2.63;;;23.40;39.50;;;;;;5103364;28;20252;-90
2023/04/23 12:22:46;;;;;;;2.97;2.78;;;22.80;39.40;;;;;;5107532;28;20615;-90
2023/04/23 12:25:11;;;;;;;3.28;2.90;;;22.00;40.90;;;;;;5111373;28;20231;-91
2023/04/23 12:27:43;;;;;;;3.00;2.80;;;22.10;38.90;;;;;;5110287;28;20175;-89
2023/04/23 12:30:10;;;;;;;2.92;2.72;;;22.80;39.20;;;;;;5116308;28;20210;-89
2023/04/23 12:32:36;;;;;;;2.80;2.60;;;22.70;40.20;;;;;;5117195;28;20206;-89
2023/04/23 12:35:05;;;;;;;3.00;2.80;;;22.80;38.70;;;;;;5106735;28;20233;-90
2023/04/23 12:37:35;;;;;;;4.20;3.50;;;22.30;39.50;;;;;;5117997;28;20262;-90
2023/04/23 12:40:01;;;;;;;3.10;2.90;;;22.60;39.90;;;;;;5114235;28;20248;-90
2023/04/23 12:42:27;;;;;;;3.60;3.30;;;22.80;40.20;;;;;;5110155;28;20363;-88
2023/04/23 12:44:55;;;;;;;6.82;6.32;;;23.00;39.20;;;;;;5115211;28;20174;-89